Strona główna
METAR-TAF:

METAR-TAF

Lotnisko :

Philip Municipal Airport

Philip, Dakota Południowa, Stany Zjednoczone

Szerokość geograficzna: 44-03-04N, Długość geograficzna: 101-36-04W, wysokość: 673 m

Aktualna obserwacja pogody

Raport powstał 26 minut temu, godzina 09:55 UTC
Wiatr 8 kt od wschodnio-południowy wschód
Temperatura 14°C
Wilgotność 100%
Ciśnienie 1014 hPa
Widzialność: 16.1 km
bezchmurnie

METAR: KPHP 260955Z AUTO 12008KT 10SM CLR 14/14 A2993 RMK AO2 RAE0859 SLP120 P0000 T01440139

czas: 04:21 (10:21 UTC)


TAF: brakujący

Obserwacja i prognoza pogody dla ponad 4000 lotnisk (raport METAR i TAF).

Dostępne stacje oznaczono żółtymi i czerwonymi punktami na mapie.

Najedź kursorem aby zobaczyć nazwę stacji.

Kliknij aby zobaczyć obserwacje i prognozy pogody.

Aby zmienić mapę: kliknij na zielony przycisk z czarnym krzyżykiem, aby powiększyć; na zielony przycisk z myślnikiem, aby pomniejszyć; na zielone strzałki, aby przejść do map sąsiednich.


METAR-TAF: